createdAt,value
2023-04-08T00:00:08.830Z,102471.81
2023-04-08T00:02:35.424Z,102472.66
2023-04-08T00:05:02.142Z,102466.72
2023-04-08T00:07:29.077Z,102476.03
2023-04-08T00:09:55.604Z,102473.47
2023-04-08T00:12:22.152Z,102477.75
2023-04-08T00:14:48.676Z,102469.25
2023-04-08T00:17:15.096Z,102474.38
2023-04-08T00:19:41.513Z,102474.34
2023-04-08T00:22:08.311Z,102476.03
2023-04-08T00:24:34.787Z,102478.56
2023-04-08T00:27:01.210Z,102475.97
2023-04-08T00:29:27.623Z,102472.50
2023-04-08T00:31:54.530Z,102474.22
2023-04-08T00:34:21.102Z,102476.69
2023-04-08T00:36:47.647Z,102474.97
2023-04-08T00:39:14.606Z,102475.81
2023-04-08T00:41:41.152Z,102477.53
2023-04-08T00:44:07.803Z,102485.16
2023-04-08T00:46:37.253Z,102491.09
2023-04-08T00:49:04.398Z,102498.72
2023-04-08T00:51:36.348Z,102498.66
2023-04-08T00:54:04.912Z,102497.81
2023-04-08T00:56:32.848Z,102491.00
2023-04-08T00:59:00.661Z,102493.47
2023-04-08T01:01:43.863Z,102494.31
2023-04-08T01:04:27.490Z,102499.38
2023-04-08T01:07:17.920Z,102494.28
2023-04-08T01:09:56.343Z,102500.25
2023-04-08T01:12:29.949Z,102503.56
2023-04-08T01:15:05.891Z,102501.03
2023-04-08T01:17:33.936Z,102504.44
2023-04-08T01:20:02.760Z,102504.44
2023-04-08T01:22:48.470Z,102507.00
2023-04-08T01:25:29.960Z,102504.41
2023-04-08T01:27:58.424Z,102504.38
2023-04-08T01:30:26.079Z,102514.53
2023-04-08T01:32:56.476Z,102509.44
2023-04-08T01:35:23.968Z,102506.84
2023-04-08T01:37:51.634Z,102509.38
2023-04-08T01:40:19.849Z,102505.94
2023-04-08T01:42:49.629Z,102511.00
2023-04-08T01:45:16.884Z,102511.84
2023-04-08T01:47:47.523Z,102511.81
2023-04-08T01:50:15.616Z,102517.75
2023-04-08T01:52:46.167Z,102516.06
2023-04-08T01:55:12.741Z,102517.72
2023-04-08T01:57:40.909Z,102519.47
2023-04-08T02:00:14.336Z,102514.34
2023-04-08T02:02:43.061Z,102518.56
2023-04-08T02:05:09.826Z,102517.72
2023-04-08T02:07:36.610Z,102518.53
2023-04-08T02:10:03.750Z,102514.28
2023-04-08T02:12:30.507Z,102510.91
2023-04-08T02:14:57.856Z,102507.50
2023-04-08T02:17:45.541Z,102513.44
2023-04-08T02:20:31.072Z,102509.25
2023-04-08T02:23:09.127Z,102516.81
2023-04-08T02:25:38.869Z,102515.16
2023-04-08T02:28:09.517Z,102512.59
2023-04-08T02:30:37.266Z,102518.50
2023-04-08T02:33:05.609Z,102525.28
2023-04-08T02:35:32.797Z,102525.28
2023-04-08T02:37:59.404Z,102527.00
2023-04-08T02:40:30.277Z,102525.28
2023-04-08T02:42:57.050Z,102529.53
2023-04-08T02:45:27.660Z,102529.53
2023-04-08T02:47:54.224Z,102522.72
2023-04-08T02:50:20.740Z,102533.78
2023-04-08T02:52:47.197Z,102532.06
2023-04-08T02:55:13.595Z,102531.16
2023-04-08T02:57:41.983Z,102539.59
2023-04-08T03:00:09.688Z,102542.97
2023-04-08T03:02:36.543Z,102544.56
2023-04-08T03:05:04.292Z,102542.84
2023-04-08T03:07:30.975Z,102536.84
2023-04-08T03:09:57.546Z,102546.19
2023-04-08T03:12:24.020Z,102544.47
2023-04-08T03:14:50.772Z,102547.84
2023-04-08T03:17:17.231Z,102541.00
2023-04-08T03:19:43.657Z,102541.88
2023-04-08T03:22:10.204Z,102538.44
2023-04-08T03:24:37.050Z,102542.69
2023-04-08T03:27:03.800Z,102536.72
2023-04-08T03:29:32.999Z,102535.06
2023-04-08T03:31:59.647Z,102541.81
2023-04-08T03:34:26.222Z,102545.94
2023-04-08T03:36:52.699Z,102544.28
2023-04-08T03:39:19.432Z,102537.50
2023-04-08T03:41:45.834Z,102542.56
2023-04-08T03:44:12.298Z,102541.66
2023-04-08T03:46:38.718Z,102544.16
2023-04-08T03:49:05.302Z,102553.44
2023-04-08T03:51:31.927Z,102547.44
2023-04-08T03:53:58.420Z,102548.25
2023-04-08T03:56:25.595Z,102550.75
2023-04-08T03:58:52.259Z,102544.75
2023-04-08T04:01:18.885Z,102552.38
2023-04-08T04:03:45.443Z,102559.06
2023-04-08T04:06:12.144Z,102563.25
2023-04-08T04:08:38.536Z,102559.88
2023-04-08T04:11:04.972Z,102569.19
2023-04-08T04:13:31.344Z,102558.91
2023-04-08T04:15:58.004Z,102566.50
2023-04-08T04:18:24.407Z,102576.69
2023-04-08T04:20:50.956Z,102579.16
2023-04-08T04:23:17.363Z,102575.78
2023-04-08T04:25:44.399Z,102586.78
2023-04-08T04:28:10.890Z,102588.41
2023-04-08T04:30:40.545Z,102595.97
2023-04-08T04:33:07.430Z,102584.03
2023-04-08T04:35:34.199Z,102592.47
2023-04-08T04:38:01.591Z,102594.09
2023-04-08T04:40:28.082Z,102602.56
2023-04-08T04:42:54.504Z,102595.72
2023-04-08T04:45:20.955Z,102612.63
2023-04-08T04:47:47.477Z,102607.56
2023-04-08T04:50:13.884Z,102611.78
2023-04-08T04:52:41.388Z,102618.59
2023-04-08T04:55:08.230Z,102623.56
2023-04-08T04:57:34.670Z,102619.22
2023-04-08T05:00:02.273Z,102622.59
2023-04-08T05:02:30.813Z,102623.38
2023-04-08T05:04:57.380Z,102627.53
2023-04-08T05:07:23.943Z,102630.00
2023-04-08T05:09:50.712Z,102630.72
2023-04-08T05:12:17.238Z,102636.56
2023-04-08T05:14:43.699Z,102631.38
2023-04-08T05:17:10.134Z,102639.72
2023-04-08T05:19:36.533Z,102638.81
2023-04-08T05:22:03.011Z,102642.06
2023-04-08T05:24:29.419Z,102643.72
2023-04-08T05:26:57.797Z,102651.31
2023-04-08T05:29:24.268Z,102649.50
2023-04-08T05:31:51.073Z,102648.50
2023-04-08T05:34:22.793Z,102645.81
2023-04-08T05:36:53.449Z,102648.28
2023-04-08T05:39:20.372Z,102649.88
2023-04-08T05:41:46.894Z,102654.19
2023-04-08T05:44:14.105Z,102649.88
2023-04-08T05:46:40.574Z,102662.66
2023-04-08T05:49:07.100Z,102656.69
2023-04-08T05:51:33.503Z,102661.75
2023-04-08T05:53:59.863Z,102664.25
2023-04-08T05:56:26.500Z,102664.25
2023-04-08T05:58:52.952Z,102665.06
2023-04-08T06:01:19.387Z,102669.28
2023-04-08T06:03:46.087Z,102657.47
2023-04-08T06:06:12.678Z,102664.28
2023-04-08T06:08:39.161Z,102666.06
2023-04-08T06:11:05.720Z,102666.94
2023-04-08T06:13:32.387Z,102671.19
2023-04-08T06:15:59.614Z,102665.31
2023-04-08T06:18:26.143Z,102672.13
2023-04-08T06:20:52.550Z,102672.09
2023-04-08T06:23:18.981Z,102667.03
2023-04-08T06:25:45.412Z,102673.09
2023-04-08T06:28:11.813Z,102680.78
2023-04-08T06:30:38.261Z,102686.72
2023-04-08T06:33:04.767Z,102693.56
2023-04-08T06:35:32.627Z,102697.81
2023-04-08T06:37:59.193Z,102702.13
2023-04-08T06:40:25.807Z,102704.72
2023-04-08T06:42:52.289Z,102708.97
2023-04-08T06:45:18.661Z,102711.53
2023-04-08T06:47:45.357Z,102719.25
2023-04-08T06:50:11.991Z,102711.66
2023-04-08T06:52:38.659Z,102721.97
2023-04-08T06:55:05.668Z,102719.41
2023-04-08T06:57:32.096Z,102716.06
2023-04-08T07:00:00.544Z,102724.63
2023-04-08T07:02:27.198Z,102721.31
2023-04-08T07:04:53.689Z,102738.38
2023-04-08T07:07:20.225Z,102735.03
2023-04-08T07:09:46.840Z,102737.69
2023-04-08T07:12:13.500Z,102735.28
2023-04-08T07:14:39.967Z,102737.94
2023-04-08T07:17:06.746Z,102747.41
2023-04-08T07:19:33.593Z,102749.28
2023-04-08T07:22:01.010Z,102747.72
2023-04-08T07:24:27.516Z,102755.41
2023-04-08T07:26:56.739Z,102752.09
2023-04-08T07:29:23.207Z,102757.38
2023-04-08T07:31:49.569Z,102761.75
2023-04-08T07:34:16.606Z,102766.06
2023-04-08T07:36:43.234Z,102764.41
2023-04-08T07:39:09.663Z,102772.97
2023-04-08T07:41:36.558Z,102763.88
2023-04-08T07:44:02.997Z,102762.31
2023-04-08T07:46:29.537Z,102761.56
2023-04-08T07:48:55.951Z,102770.25
2023-04-08T07:51:22.479Z,102770.38
2023-04-08T07:53:49.003Z,102774.56
2023-04-08T07:56:16.328Z,102767.09
2023-04-08T07:58:43.154Z,102767.19
2023-04-08T08:01:16.589Z,102768.16
2023-04-08T08:03:43.068Z,102769.09
2023-04-08T08:06:11.749Z,102762.34
2023-04-08T08:08:38.205Z,102769.28
2023-04-08T08:11:04.689Z,102776.25
2023-04-08T08:13:31.303Z,102772.13
2023-04-08T08:15:57.856Z,102771.38
2023-04-08T08:18:24.417Z,102771.50
2023-04-08T08:20:50.882Z,102773.38
2023-04-08T08:23:17.278Z,102768.28
2023-04-08T08:25:43.895Z,102776.88
2023-04-08T08:28:10.476Z,102768.50
2023-04-08T08:30:38.369Z,102774.56
2023-04-08T08:33:04.790Z,102767.91
2023-04-08T08:35:31.431Z,102784.97
2023-04-08T08:37:57.911Z,102783.34
2023-04-08T08:40:24.328Z,102786.84
2023-04-08T08:42:52.404Z,102788.59
2023-04-08T08:45:22.024Z,102785.22
2023-04-08T08:47:50.835Z,102787.09
2023-04-08T08:50:18.021Z,102785.53
2023-04-08T08:52:51.521Z,102791.56
2023-04-08T08:55:41.296Z,102791.69
2023-04-08T08:58:08.450Z,102791.72
2023-04-08T09:00:39.287Z,102795.19
2023-04-08T09:03:28.893Z,102793.59
2023-04-08T09:05:57.698Z,102790.22
2023-04-08T09:08:31.988Z,102794.56
2023-04-08T09:11:17.785Z,102802.31
2023-04-08T09:13:46.286Z,102798.13
2023-04-08T09:16:16.628Z,102796.50
2023-04-08T09:18:44.974Z,102799.97
2023-04-08T09:21:12.691Z,102800.03
2023-04-08T09:23:46.477Z,102801.81
2023-04-08T09:26:14.039Z,102804.38
2023-04-08T09:28:42.105Z,102803.56
2023-04-08T09:31:19.577Z,102806.16
2023-04-08T09:33:47.451Z,102813.00
2023-04-08T09:36:15.518Z,102806.22
2023-04-08T09:38:42.658Z,102817.38
2023-04-08T09:41:12.998Z,102810.59
2023-04-08T09:43:50.681Z,102812.31
2023-04-08T09:46:24.523Z,102820.88
2023-04-08T09:49:01.209Z,102814.91
2023-04-08T09:51:33.172Z,102814.91
2023-04-08T09:54:02.660Z,102807.22
2023-04-08T09:56:41.679Z,102811.50
2023-04-08T09:59:14.906Z,102812.38
2023-04-08T10:01:46.379Z,102812.34
2023-04-08T10:04:17.331Z,102808.94
2023-04-08T10:06:43.890Z,102808.06
2023-04-08T10:09:10.753Z,102801.22
2023-04-08T10:11:37.404Z,102800.31
2023-04-08T10:14:04.072Z,102799.44
2023-04-08T10:16:31.137Z,102796.88
2023-04-08T10:18:58.113Z,102794.28
2023-04-08T10:21:48.082Z,102787.38
2023-04-08T10:24:14.525Z,102801.06
2023-04-08T10:26:42.928Z,102791.63
2023-04-08T10:29:32.896Z,102800.97
2023-04-08T10:31:59.698Z,102787.22
2023-04-08T10:34:27.586Z,102791.44
2023-04-08T10:36:56.650Z,102786.16
2023-04-08T10:39:23.217Z,102795.50
2023-04-08T10:41:50.946Z,102797.13
2023-04-08T10:44:18.173Z,102786.69
2023-04-08T10:46:46.766Z,102788.34
2023-04-08T10:49:14.144Z,102792.59
2023-04-08T10:51:41.625Z,102793.34
2023-04-08T10:54:09.795Z,102787.25
2023-04-08T10:56:43.680Z,102790.69
2023-04-08T10:59:11.090Z,102791.41
2023-04-08T11:01:41.903Z,102781.03
2023-04-08T11:04:15.958Z,102787.06
2023-04-08T11:06:44.008Z,102775.81
2023-04-08T11:09:10.976Z,102780.09
2023-04-08T11:11:37.937Z,102779.94
2023-04-08T11:14:05.660Z,102778.19
2023-04-08T11:16:32.656Z,102780.81
2023-04-08T11:18:59.686Z,102770.34
2023-04-08T11:21:29.555Z,102778.91
2023-04-08T11:23:56.402Z,102777.88
2023-04-08T11:26:23.521Z,102771.78
2023-04-08T11:28:51.641Z,102774.97
2023-04-08T11:31:20.640Z,102774.00
2023-04-08T11:33:50.252Z,102763.53
2023-04-08T11:36:21.593Z,102765.09
2023-04-08T11:38:48.233Z,102766.03
2023-04-08T11:41:14.904Z,102768.63
2023-04-08T11:43:54.704Z,102773.75
2023-04-08T11:46:21.484Z,102776.34
2023-04-08T11:49:08.618Z,102774.19
2023-04-08T11:51:53.494Z,102765.19
2023-04-08T11:54:27.704Z,102779.63
2023-04-08T11:56:54.261Z,102764.94
2023-04-08T11:59:20.618Z,102768.25
2023-04-08T12:01:47.225Z,102775.22
2023-04-08T12:04:13.846Z,102778.59
2023-04-08T12:06:43.424Z,102774.19
2023-04-08T12:09:10.049Z,102774.84
2023-04-08T12:11:36.718Z,102768.63
2023-04-08T12:14:03.174Z,102771.75
2023-04-08T12:16:29.799Z,102767.34
2023-04-08T12:18:56.300Z,102768.38
2023-04-08T12:21:22.837Z,102761.41
2023-04-08T12:23:49.539Z,102766.22
2023-04-08T12:26:16.180Z,102768.19
2023-04-08T12:28:42.726Z,102758.09
2023-04-08T12:31:09.181Z,102766.75
2023-04-08T12:33:36.699Z,102765.72
2023-04-08T12:36:03.507Z,102770.84
2023-04-08T12:38:29.939Z,102762.31
2023-04-08T12:40:56.470Z,102765.25
2023-04-08T12:43:23.811Z,102762.59
2023-04-08T12:45:50.800Z,102757.53
2023-04-08T12:48:17.321Z,102765.56
2023-04-08T12:50:44.064Z,102759.81
2023-04-08T12:53:11.111Z,102757.06
2023-04-08T12:55:37.654Z,102758.25
2023-04-08T12:58:05.522Z,102766.13
2023-04-08T13:00:32.351Z,102765.25
2023-04-08T13:02:58.976Z,102769.50
2023-04-08T13:05:33.156Z,102764.38
2023-04-08T13:08:09.753Z,102762.59
2023-04-08T13:10:36.339Z,102760.56
2023-04-08T13:13:02.772Z,102772.22
2023-04-08T13:15:29.141Z,102776.06
2023-04-08T13:17:56.085Z,102766.44
2023-04-08T13:20:25.881Z,102770.56
2023-04-08T13:22:55.599Z,102765.31
2023-04-08T13:25:22.235Z,102770.56
2023-04-08T13:27:48.713Z,102768.50
2023-04-08T13:30:15.534Z,102756.44
2023-04-08T13:32:42.187Z,102759.06
2023-04-08T13:35:09.246Z,102762.69
2023-04-08T13:37:36.091Z,102757.28
2023-04-08T13:40:03.498Z,102761.47
2023-04-08T13:42:33.122Z,102749.16
2023-04-08T13:44:59.957Z,102755.47
2023-04-08T13:47:27.200Z,102737.06
2023-04-08T13:49:54.015Z,102745.91
2023-04-08T13:52:20.545Z,102745.19
2023-04-08T13:54:47.045Z,102741.44
2023-04-08T13:57:13.663Z,102744.50
2023-04-08T13:59:40.933Z,102752.00
2023-04-08T14:02:08.621Z,102750.94
2023-04-08T14:04:35.262Z,102753.06
2023-04-08T14:07:01.847Z,102748.47
2023-04-08T14:09:28.281Z,102743.69
2023-04-08T14:11:54.691Z,102743.63
2023-04-08T14:14:21.208Z,102744.47
2023-04-08T14:16:48.314Z,102735.06
2023-04-08T14:19:14.803Z,102737.69
2023-04-08T14:21:41.388Z,102728.22
2023-04-08T14:24:07.936Z,102735.53
2023-04-08T14:26:36.046Z,102731.09
2023-04-08T14:29:04.682Z,102727.34
2023-04-08T14:31:32.423Z,102734.59
2023-04-08T14:33:59.688Z,102726.44
2023-04-08T14:36:39.081Z,102726.75
2023-04-08T14:39:05.748Z,102722.41
2023-04-08T14:41:32.261Z,102726.75
2023-04-08T14:43:58.765Z,102726.63
2023-04-08T14:46:28.893Z,102727.41
2023-04-08T14:48:55.852Z,102724.19
2023-04-08T14:51:22.272Z,102726.28
2023-04-08T14:53:48.812Z,102722.69
2023-04-08T14:56:15.422Z,102718.13
2023-04-08T14:58:41.876Z,102716.28
2023-04-08T15:01:08.322Z,102712.28
2023-04-08T15:03:34.937Z,102720.88
2023-04-08T15:06:01.876Z,102716.97
2023-04-08T15:08:28.763Z,102719.28
2023-04-08T15:10:55.578Z,102715.28
2023-04-08T15:13:22.972Z,102712.38
2023-04-08T15:15:49.610Z,102714.28
2023-04-08T15:18:16.258Z,102706.97
2023-04-08T15:20:42.757Z,102707.47
2023-04-08T15:23:09.272Z,102703.97
2023-04-08T15:25:35.836Z,102705.72
2023-04-08T15:28:02.708Z,102708.75
2023-04-08T15:30:34.972Z,102712.53
2023-04-08T15:33:04.893Z,102709.44
2023-04-08T15:35:32.833Z,102711.09
2023-04-08T15:38:00.450Z,102714.88
2023-04-08T15:40:27.103Z,102724.00
2023-04-08T15:42:53.709Z,102713.88
2023-04-08T15:45:20.637Z,102716.72
2023-04-08T15:47:47.094Z,102717.03
2023-04-08T15:50:14.872Z,102720.59
2023-04-08T15:52:41.847Z,102714.19
2023-04-08T15:55:08.642Z,102711.16
2023-04-08T15:57:36.542Z,102717.28
2023-04-08T16:00:10.722Z,102713.41
2023-04-08T16:02:37.624Z,102709.44
2023-04-08T16:05:04.470Z,102723.81
2023-04-08T16:07:31.229Z,102729.13
2023-04-08T16:09:58.994Z,102727.28
2023-04-08T16:12:25.792Z,102723.31
2023-04-08T16:14:52.407Z,102722.03
2023-04-08T16:17:18.896Z,102725.00
2023-04-08T16:19:45.322Z,102723.63
2023-04-08T16:22:11.758Z,102729.09
2023-04-08T16:24:38.240Z,102730.13
2023-04-08T16:27:05.477Z,102729.38
2023-04-08T16:29:32.593Z,102721.69
2023-04-08T16:31:59.065Z,102723.88
2023-04-08T16:34:25.441Z,102721.56
2023-04-08T16:36:51.949Z,102719.06
2023-04-08T16:39:18.368Z,102706.41
2023-04-08T16:41:45.101Z,102710.03
2023-04-08T16:44:11.639Z,102719.09
2023-04-08T16:46:38.371Z,102711.59
2023-04-08T16:49:04.859Z,102713.16
2023-04-08T16:51:31.308Z,102716.47
2023-04-08T16:53:59.194Z,102717.38
2023-04-08T16:56:27.003Z,102720.81
2023-04-08T16:58:53.431Z,102717.31
2023-04-08T17:01:20.466Z,102714.63
2023-04-08T17:03:48.677Z,102717.84
2023-04-08T17:06:15.310Z,102716.41
2023-04-08T17:08:44.792Z,102719.13
2023-04-08T17:11:14.750Z,102723.22
2023-04-08T17:13:42.905Z,102729.75
2023-04-08T17:16:14.993Z,102724.38
2023-04-08T17:18:42.252Z,102726.34
2023-04-08T17:21:08.811Z,102735.75
2023-04-08T17:23:35.344Z,102740.63
2023-04-08T17:26:09.283Z,102737.69
2023-04-08T17:28:36.357Z,102744.19
2023-04-08T17:31:02.988Z,102743.91
2023-04-08T17:33:29.574Z,102733.84
2023-04-08T17:35:56.149Z,102738.59
2023-04-08T17:38:22.753Z,102739.22
2023-04-08T17:40:49.281Z,102740.81
2023-04-08T17:43:15.868Z,102736.97
2023-04-08T17:45:42.399Z,102740.91
2023-04-08T17:48:09.842Z,102746.41
2023-04-08T17:50:36.685Z,102738.88
2023-04-08T17:53:03.237Z,102740.03
2023-04-08T17:55:29.747Z,102740.13
2023-04-08T17:57:56.254Z,102739.38
2023-04-08T18:00:22.932Z,102743.81
2023-04-08T18:02:50.367Z,102749.97
2023-04-08T18:05:16.906Z,102750.03
2023-04-08T18:07:43.431Z,102745.84
2023-04-08T18:10:10.061Z,102750.19
2023-04-08T18:12:37.113Z,102751.13
2023-04-08T18:15:03.738Z,102747.72
2023-04-08T18:17:30.361Z,102752.00
2023-04-08T18:19:58.352Z,102755.50
2023-04-08T18:22:24.816Z,102748.69
2023-04-08T18:24:51.266Z,102753.81
2023-04-08T18:27:17.712Z,102759.81
2023-04-08T18:29:44.119Z,102760.72
2023-04-08T18:32:10.595Z,102763.28
2023-04-08T18:34:37.157Z,102760.72
2023-04-08T18:37:04.066Z,102760.69
2023-04-08T18:39:30.643Z,102769.28
2023-04-08T18:41:57.292Z,102764.16
2023-04-08T18:44:23.780Z,102766.72
2023-04-08T18:46:50.266Z,102770.16
2023-04-08T18:49:16.725Z,102770.16
2023-04-08T18:51:58.927Z,102778.75
2023-04-08T18:54:28.167Z,102774.47
2023-04-08T18:56:54.657Z,102783.00
2023-04-08T18:59:21.084Z,102783.88
2023-04-08T19:01:48.641Z,102787.31
2023-04-08T19:04:15.316Z,102782.19
2023-04-08T19:06:42.646Z,102786.47
2023-04-08T19:09:09.169Z,102781.34
2023-04-08T19:11:35.709Z,102785.63
2023-04-08T19:14:02.187Z,102792.47
2023-04-08T19:16:28.649Z,102783.91
2023-04-08T19:18:55.120Z,102789.03
2023-04-08T19:21:22.029Z,102794.19
2023-04-08T19:23:49.239Z,102785.66
2023-04-08T19:26:16.246Z,102797.66
2023-04-08T19:28:42.792Z,102791.66
2023-04-08T19:31:20.232Z,102790.81
2023-04-08T19:33:47.014Z,102789.13
2023-04-08T19:36:13.570Z,102800.25
2023-04-08T19:38:40.250Z,102799.41
2023-04-08T19:41:06.944Z,102801.16
2023-04-08T19:43:33.462Z,102799.47
2023-04-08T19:45:59.943Z,102796.91
2023-04-08T19:48:26.735Z,102796.91
2023-04-08T19:50:53.154Z,102801.22
2023-04-08T19:53:19.718Z,102804.63
2023-04-08T19:55:46.247Z,102808.91
2023-04-08T19:58:12.859Z,102811.50
2023-04-08T20:00:40.083Z,102811.50
2023-04-08T20:03:07.785Z,102812.34
2023-04-08T20:05:34.633Z,102825.19
2023-04-08T20:08:01.070Z,102814.06
2023-04-08T20:10:27.543Z,102824.31
2023-04-08T20:12:54.248Z,102823.47
2023-04-08T20:15:25.211Z,102813.19
2023-04-08T20:17:53.113Z,102822.59
2023-04-08T20:20:19.937Z,102827.69
2023-04-08T20:22:46.614Z,102823.41
2023-04-08T20:25:13.315Z,102834.50
2023-04-08T20:27:39.774Z,102836.22
2023-04-08T20:30:07.097Z,102837.88
2023-04-08T20:32:34.698Z,102839.56
2023-04-08T20:35:01.479Z,102842.91
2023-04-08T20:37:28.701Z,102843.75
2023-04-08T20:39:55.156Z,102846.31
2023-04-08T20:42:21.689Z,102846.28
2023-04-08T20:44:48.096Z,102849.69
2023-04-08T20:47:14.584Z,102843.69
2023-04-08T20:49:42.129Z,102848.78
2023-04-08T20:52:08.571Z,102847.03
2023-04-08T20:54:34.998Z,102847.88
2023-04-08T20:57:01.593Z,102846.97
2023-04-08T20:59:28.170Z,102850.38
2023-04-08T21:01:54.699Z,102852.03
2023-04-08T21:04:22.379Z,102849.41
2023-04-08T21:06:48.995Z,102859.59
2023-04-08T21:09:15.762Z,102845.94
2023-04-08T21:11:42.370Z,102855.31
2023-04-08T21:14:08.802Z,102853.59
2023-04-08T21:16:35.343Z,102858.69
2023-04-08T21:19:01.992Z,102858.69
2023-04-08T21:21:28.536Z,102854.38
2023-04-08T21:23:55.018Z,102860.34
2023-04-08T21:26:22.138Z,102854.34
2023-04-08T21:28:49.915Z,102850.91
2023-04-08T21:31:16.640Z,102856.88
2023-04-08T21:33:43.067Z,102853.44
2023-04-08T21:36:09.724Z,102852.56
2023-04-08T21:38:36.213Z,102853.38
2023-04-08T21:41:02.781Z,102849.06
2023-04-08T21:43:29.363Z,102846.50
2023-04-08T21:45:55.880Z,102842.16
2023-04-08T21:48:23.369Z,102847.28
2023-04-08T21:50:49.824Z,102851.53
2023-04-08T21:53:16.691Z,102853.19
2023-04-08T21:55:43.136Z,102857.34
2023-04-08T21:58:12.164Z,102853.84
2023-04-08T22:00:39.039Z,102855.50
2023-04-08T22:03:06.924Z,102852.94
2023-04-08T22:05:33.555Z,102857.16
2023-04-08T22:08:01.140Z,102858.88
2023-04-08T22:10:27.704Z,102858.03
2023-04-08T22:12:54.164Z,102859.75
2023-04-08T22:15:20.775Z,102860.59
2023-04-08T22:17:47.198Z,102858.09
2023-04-08T22:20:13.697Z,102859.84
2023-04-08T22:22:40.106Z,102861.59
2023-04-08T22:25:07.145Z,102859.13
2023-04-08T22:27:33.671Z,102853.19
2023-04-08T22:30:00.222Z,102860.88
2023-04-08T22:32:26.712Z,102860.88
2023-04-08T22:34:53.171Z,102864.31
2023-04-08T22:37:19.665Z,102859.22
2023-04-08T22:39:46.164Z,102856.69
2023-04-08T22:42:12.615Z,102861.81
2023-04-08T22:44:39.172Z,102857.56
2023-04-08T22:47:05.595Z,102857.59
2023-04-08T22:49:31.964Z,102857.63
2023-04-08T22:51:58.362Z,102858.50
2023-04-08T22:54:24.841Z,102858.50
2023-04-08T22:56:51.345Z,102856.81
2023-04-08T22:59:17.769Z,102860.25
2023-04-08T23:01:45.120Z,102853.44
2023-04-08T23:04:11.586Z,102856.00
2023-04-08T23:06:38.018Z,102855.16
2023-04-08T23:09:04.507Z,102852.63
2023-04-08T23:11:30.955Z,102857.72
2023-04-08T23:13:57.385Z,102863.75
2023-04-08T23:16:23.817Z,102852.69
2023-04-08T23:18:50.519Z,102849.28
2023-04-08T23:21:17.170Z,102851.84
2023-04-08T23:23:43.585Z,102853.53
2023-04-08T23:26:21.263Z,102851.84
2023-04-08T23:28:47.874Z,102849.31
2023-04-08T23:31:14.280Z,102846.75
2023-04-08T23:33:40.935Z,102855.28
2023-04-08T23:36:09.657Z,102850.19
2023-04-08T23:38:37.095Z,102845.91
2023-04-08T23:41:04.599Z,102849.34
2023-04-08T23:43:31.125Z,102847.63
2023-04-08T23:45:57.710Z,102838.22
2023-04-08T23:48:24.300Z,102839.94
2023-04-08T23:50:55.009Z,102837.41
2023-04-08T23:53:21.920Z,102833.13
2023-04-08T23:55:48.608Z,102835.69
2023-04-08T23:58:15.563Z,102833.19
